Time;durP1;ratioP1;P1;durP2;ratioP2;P2;SDS_P1;SDS_P2;PMS_P1;PMS_P2;Temp;Humidity;BMP_temperature;BMP_pressure;BME280_temperature;BME280_humidity;BME280_pressure;Samples;Min_cycle;Max_cycle;Signal;HPM_P1;HPM_P2
2022/07/23 00:00:55;;;;;;;9.77;7.05;;;;;;;;;;5065988;28;20482;-87
2022/07/23 00:03:21;;;;;;;9.65;7.72;;;;;;;;;;5040846;28;20036;-87
2022/07/23 00:05:47;;;;;;;9.57;7.72;;;;;;;;;;5055712;28;20103;-87
2022/07/23 00:08:13;;;;;;;9.88;8.18;;;;;;;;;;5058192;28;20467;-87
2022/07/23 00:10:39;;;;;;;10.75;7.68;;;;;;;;;;5046706;28;20032;-88
2022/07/23 00:13:06;;;;;;;9.65;7.63;;;;;;;;;;5042113;28;20020;-87
2022/07/23 00:15:32;;;;;;;9.27;7.35;;;;;;;;;;5037792;28;20025;-88
2022/07/23 00:17:58;;;;;;;11.05;7.57;;;;;;;;;;5038207;28;20079;-87
2022/07/23 00:20:24;;;;;;;9.40;7.50;;;;;;;;;;5035863;28;20061;-88
2022/07/23 00:22:54;;;;;;;10.80;7.70;;;;;;;;;;5037010;28;20036;-87
2022/07/23 00:25:20;;;;;;;8.82;7.35;;;;;;;;;;5055640;28;20021;-87
2022/07/23 00:27:46;;;;;;;9.30;6.88;;;;;;;;;;5038589;28;20079;-87
2022/07/23 00:30:12;;;;;;;10.00;8.07;;;;;;;;;;5036177;28;20394;-88
2022/07/23 00:32:45;;;;;;;9.00;7.55;;;;;;;;;;5035558;28;20375;-88
2022/07/23 00:35:11;;;;;;;9.80;7.75;;;;;;;;;;5054979;28;20029;-87
2022/07/23 00:37:37;;;;;;;10.13;7.90;;;;;;;;;;5037946;28;20028;-87
2022/07/23 00:40:04;;;;;;;9.43;7.38;;;;;;;;;;5054405;28;20029;-87
2022/07/23 00:42:31;;;;;;;11.07;7.85;;;;;;;;;;5038401;28;20056;-88
2022/07/23 00:44:57;;;;;;;10.55;7.85;;;;;;;;;;5036366;28;20064;-88
2022/07/23 00:47:23;;;;;;;9.80;7.50;;;;;;;;;;5040073;28;20479;-88
2022/07/23 00:49:49;;;;;;;10.77;7.88;;;;;;;;;;5038573;28;20055;-88
2022/07/23 00:52:15;;;;;;;10.52;8.10;;;;;;;;;;5057262;28;20032;-88
2022/07/23 00:54:42;;;;;;;9.68;8.63;;;;;;;;;;5052313;28;20418;-88
2022/07/23 00:57:08;;;;;;;10.52;8.52;;;;;;;;;;5038934;28;20164;-88
2022/07/23 00:59:34;;;;;;;10.65;8.68;;;;;;;;;;5046251;28;20028;-88
2022/07/23 01:02:00;;;;;;;10.38;7.72;;;;;;;;;;5070694;28;20024;-88
2022/07/23 01:04:26;;;;;;;9.65;8.65;;;;;;;;;;5073110;28;20037;-88
2022/07/23 01:06:52;;;;;;;10.15;8.10;;;;;;;;;;5036650;28;20028;-88
2022/07/23 01:09:18;;;;;;;11.85;8.77;;;;;;;;;;5036062;28;20025;-88
2022/07/23 01:11:44;;;;;;;10.77;8.60;;;;;;;;;;5036486;28;20108;-87
2022/07/23 01:14:17;;;;;;;10.35;8.55;;;;;;;;;;5052780;28;20025;-88
2022/07/23 01:16:44;;;;;;;11.32;8.90;;;;;;;;;;5054006;28;20017;-88
2022/07/23 01:19:10;;;;;;;9.75;8.38;;;;;;;;;;5055909;28;20084;-87
2022/07/23 01:21:38;;;;;;;11.38;8.70;;;;;;;;;;5055191;28;20033;-87
2022/07/23 01:24:04;;;;;;;12.55;8.80;;;;;;;;;;5038601;28;20056;-87
2022/07/23 01:26:30;;;;;;;11.02;8.38;;;;;;;;;;5038544;28;20422;-88
2022/07/23 01:28:56;;;;;;;9.57;8.10;;;;;;;;;;5053864;28;20049;-88
2022/07/23 01:31:22;;;;;;;11.52;8.98;;;;;;;;;;5037395;28;20013;-88
2022/07/23 01:33:49;;;;;;;10.55;8.85;;;;;;;;;;5036572;28;20087;-88
2022/07/23 01:36:15;;;;;;;11.98;9.27;;;;;;;;;;5052171;28;20025;-88
2022/07/23 01:38:41;;;;;;;13.75;10.68;;;;;;;;;;5042145;28;20028;-88
2022/07/23 01:41:07;;;;;;;12.05;8.95;;;;;;;;;;5035593;28;20092;-88
2022/07/23 01:43:33;;;;;;;11.38;8.70;;;;;;;;;;5052381;28;20083;-87
2022/07/23 01:45:59;;;;;;;10.75;9.13;;;;;;;;;;5034783;28;20029;-90
2022/07/23 01:48:25;;;;;;;11.30;8.80;;;;;;;;;;5034977;28;20021;-87
2022/07/23 01:50:51;;;;;;;10.32;8.85;;;;;;;;;;5035878;28;20032;-88
2022/07/23 01:53:17;;;;;;;10.02;7.93;;;;;;;;;;5034141;28;20043;-88
2022/07/23 01:55:43;;;;;;;9.57;7.38;;;;;;;;;;5053013;28;20021;-88
2022/07/23 01:58:11;;;;;;;10.00;8.23;;;;;;;;;;5049782;28;20513;-88
2022/07/23 02:00:37;;;;;;;9.85;7.22;;;;;;;;;;5051915;28;20052;-87
2022/07/23 02:03:03;;;;;;;9.50;7.72;;;;;;;;;;5049605;28;20029;-88
2022/07/23 02:05:30;;;;;;;10.10;7.97;;;;;;;;;;5033462;28;20025;-88
2022/07/23 02:07:56;;;;;;;9.93;7.68;;;;;;;;;;5047552;28;20025;-88
2022/07/23 02:10:22;;;;;;;11.15;7.93;;;;;;;;;;5040023;28;20112;-87
2022/07/23 02:12:48;;;;;;;11.30;8.63;;;;;;;;;;5051627;28;20329;-88
2022/07/23 02:15:14;;;;;;;12.23;8.75;;;;;;;;;;5051219;28;20040;-88
2022/07/23 02:17:41;;;;;;;11.20;8.38;;;;;;;;;;5051054;28;20013;-87
2022/07/23 02:20:07;;;;;;;11.13;9.55;;;;;;;;;;5061516;28;20032;-87
2022/07/23 02:22:34;;;;;;;10.93;9.63;;;;;;;;;;5051817;28;20025;-87
2022/07/23 02:25:00;;;;;;;11.40;9.23;;;;;;;;;;5033269;28;20021;-87
2022/07/23 02:27:26;;;;;;;11.45;9.63;;;;;;;;;;5032714;28;20518;-87
2022/07/23 02:29:52;;;;;;;11.45;9.65;;;;;;;;;;5033356;28;20028;-88
2022/07/23 02:32:18;;;;;;;11.75;9.20;;;;;;;;;;5051561;28;20025;-87
2022/07/23 02:34:44;;;;;;;11.45;9.10;;;;;;;;;;5032463;28;20032;-88
2022/07/23 02:37:10;;;;;;;13.18;10.10;;;;;;;;;;5034220;28;20414;-87
2022/07/23 02:39:36;;;;;;;13.25;10.68;;;;;;;;;;5050773;28;20498;-87
2022/07/23 02:42:02;;;;;;;12.07;10.18;;;;;;;;;;5033523;28;20023;-87
2022/07/23 02:44:28;;;;;;;15.30;10.95;;;;;;;;;;5035177;28;20059;-87
2022/07/23 02:46:54;;;;;;;13.25;10.52;;;;;;;;;;5051570;28;20049;-87
2022/07/23 02:49:20;;;;;;;13.70;11.02;;;;;;;;;;5050767;28;20107;-87
2022/07/23 02:51:46;;;;;;;12.18;10.07;;;;;;;;;;5033727;28;20023;-87
2022/07/23 02:54:12;;;;;;;12.25;10.68;;;;;;;;;;5032793;28;20028;-87
2022/07/23 02:56:38;;;;;;;12.55;10.38;;;;;;;;;;5055468;28;20094;-87
2022/07/23 02:59:04;;;;;;;14.52;10.02;;;;;;;;;;5038111;28;20491;-88
2022/07/23 03:01:30;;;;;;;12.65;10.48;;;;;;;;;;5038184;28;20052;-86
2022/07/23 03:03:56;;;;;;;13.15;10.30;;;;;;;;;;5037471;28;20089;-87
2022/07/23 03:06:22;;;;;;;12.40;10.25;;;;;;;;;;5045624;28;20089;-87
2022/07/23 03:08:49;;;;;;;14.15;10.18;;;;;;;;;;5041947;28;20025;-87
2022/07/23 03:11:15;;;;;;;11.90;9.93;;;;;;;;;;5055257;28;20542;-88
2022/07/23 03:13:42;;;;;;;12.13;10.07;;;;;;;;;;5033427;28;20027;-89
2022/07/23 03:16:08;;;;;;;12.60;10.38;;;;;;;;;;5034421;28;20025;-88
2022/07/23 03:18:34;;;;;;;14.63;10.35;;;;;;;;;;5044898;28;20071;-89
2022/07/23 03:21:00;;;;;;;12.88;10.18;;;;;;;;;;5054470;28;20056;-89
2022/07/23 03:23:26;;;;;;;12.05;9.45;;;;;;;;;;5037455;28;20029;-88
2022/07/23 03:25:52;;;;;;;11.48;10.02;;;;;;;;;;5059315;28;20025;-88
2022/07/23 03:28:19;;;;;;;13.30;10.55;;;;;;;;;;5038946;28;20143;-89
2022/07/23 03:30:46;;;;;;;12.98;10.18;;;;;;;;;;5057253;28;20426;-88
2022/07/23 03:33:19;;;;;;;11.85;9.63;;;;;;;;;;5056982;28;20131;-88
2022/07/23 03:35:44;;;;;;;;;;;;;;;;;;5039237;28;20082;-88
2022/07/23 03:38:10;;;;;;;13.98;10.07;;;;;;;;;;5037996;28;19912;-88
2022/07/23 03:40:37;;;;;;;11.50;9.07;;;;;;;;;;5051109;28;20032;-88
2022/07/23 03:43:03;;;;;;;13.23;9.43;;;;;;;;;;5045723;28;20504;-88
2022/07/23 03:45:29;;;;;;;10.98;9.82;;;;;;;;;;5036040;28;20044;-88
2022/07/23 03:47:55;;;;;;;10.70;8.88;;;;;;;;;;5034943;28;20119;-89
2022/07/23 03:50:21;;;;;;;10.38;8.77;;;;;;;;;;5046394;28;20530;-88
2022/07/23 03:52:47;;;;;;;11.13;9.18;;;;;;;;;;5036474;28;20052;-89
2022/07/23 03:55:14;;;;;;;11.05;8.88;;;;;;;;;;5038502;28;20029;-89
2022/07/23 03:57:40;;;;;;;11.10;9.10;;;;;;;;;;5042176;28;20198;-88
2022/07/23 04:00:08;;;;;;;10.82;9.32;;;;;;;;;;5054440;28;20037;-88
2022/07/23 04:02:34;;;;;;;12.15;9.55;;;;;;;;;;5037715;28;20110;-88
2022/07/23 04:05:01;;;;;;;11.23;9.48;;;;;;;;;;5037143;28;20029;-88
2022/07/23 04:07:27;;;;;;;12.70;9.25;;;;;;;;;;5036215;28;20092;-88
2022/07/23 04:09:53;;;;;;;12.45;8.60;;;;;;;;;;5036349;28;20032;-88
2022/07/23 04:12:21;;;;;;;12.55;9.82;;;;;;;;;;5028052;28;20028;-88
2022/07/23 04:14:47;;;;;;;11.18;8.77;;;;;;;;;;5036091;28;20033;-88
2022/07/23 04:17:13;;;;;;;11.38;9.07;;;;;;;;;;5033557;28;20052;-88
2022/07/23 04:19:43;;;;;;;13.07;9.55;;;;;;;;;;5052922;28;20056;-88
2022/07/23 04:22:10;;;;;;;12.10;9.68;;;;;;;;;;5036229;28;20368;-88
2022/07/23 04:24:36;;;;;;;10.65;8.73;;;;;;;;;;5053729;28;20025;-88
2022/07/23 04:27:03;;;;;;;10.45;8.82;;;;;;;;;;5042142;28;20049;-88
2022/07/23 04:29:29;;;;;;;11.98;9.27;;;;;;;;;;5034207;28;20079;-89
2022/07/23 04:31:56;;;;;;;10.98;9.23;;;;;;;;;;5034571;28;20037;-88
2022/07/23 04:34:22;;;;;;;9.93;8.85;;;;;;;;;;5053379;28;20071;-88
2022/07/23 04:36:48;;;;;;;12.05;8.77;;;;;;;;;;5035559;28;20017;-88
2022/07/23 04:39:14;;;;;;;11.60;9.07;;;;;;;;;;5050948;28;20018;-88
2022/07/23 04:41:40;;;;;;;11.80;8.63;;;;;;;;;;5052635;28;20503;-88
2022/07/23 04:44:06;;;;;;;11.68;8.82;;;;;;;;;;5035659;28;20063;-88
2022/07/23 04:46:33;;;;;;;13.52;10.70;;;;;;;;;;5054330;28;20048;-88
2022/07/23 04:48:59;;;;;;;11.52;8.75;;;;;;;;;;5034102;28;20031;-88
2022/07/23 04:51:25;;;;;;;11.70;8.98;;;;;;;;;;5034288;28;20364;-88
2022/07/23 04:53:51;;;;;;;10.38;8.82;;;;;;;;;;5050709;28;20116;-88
2022/07/23 04:56:17;;;;;;;11.00;8.95;;;;;;;;;;5052503;28;20569;-88
2022/07/23 04:58:43;;;;;;;12.68;8.73;;;;;;;;;;5049700;28;20501;-87
2022/07/23 05:01:11;;;;;;;10.45;8.93;;;;;;;;;;5050749;28;20021;-87
2022/07/23 05:03:37;;;;;;;11.70;9.00;;;;;;;;;;5034089;28;20150;-86
2022/07/23 05:06:04;;;;;;;11.80;8.55;;;;;;;;;;5033687;28;20049;-86
2022/07/23 05:08:30;;;;;;;11.27;9.65;;;;;;;;;;5043004;28;20009;-86
2022/07/23 05:10:56;;;;;;;11.48;8.95;;;;;;;;;;5052144;28;20031;-87
2022/07/23 05:13:22;;;;;;;11.48;8.95;;;;;;;;;;5033196;28;20085;-87
2022/07/23 05:15:48;;;;;;;11.13;8.82;;;;;;;;;;5052791;28;20088;-87
2022/07/23 05:18:14;;;;;;;10.73;9.55;;;;;;;;;;5054574;28;20066;-86
2022/07/23 05:20:40;;;;;;;11.23;9.75;;;;;;;;;;5046549;28;20152;-86
2022/07/23 05:23:07;;;;;;;11.35;9.20;;;;;;;;;;5052163;28;20033;-87
2022/07/23 05:25:33;;;;;;;12.10;9.32;;;;;;;;;;5052178;28;20021;-86
2022/07/23 05:27:59;;;;;;;13.48;9.55;;;;;;;;;;5050604;28;20056;-87
2022/07/23 05:30:25;;;;;;;11.38;8.98;;;;;;;;;;5056634;28;20021;-87
2022/07/23 05:32:51;;;;;;;12.30;9.77;;;;;;;;;;5033435;28;20031;-87
2022/07/23 05:35:17;;;;;;;11.90;10.00;;;;;;;;;;5035788;28;20757;-86
2022/07/23 05:37:43;;;;;;;11.38;8.88;;;;;;;;;;5062391;28;20398;-87
2022/07/23 05:40:10;;;;;;;11.93;10.20;;;;;;;;;;5051690;28;20039;-86
2022/07/23 05:42:37;;;;;;;12.45;10.77;;;;;;;;;;5055668;28;20040;-85
2022/07/23 05:45:03;;;;;;;12.45;9.40;;;;;;;;;;5072079;28;20391;-86
2022/07/23 05:47:38;;;;;;;12.77;9.95;;;;;;;;;;5070376;28;20009;-86
2022/07/23 05:50:05;;;;;;;10.57;9.27;;;;;;;;;;5033955;28;20048;-86
2022/07/23 05:52:31;;;;;;;11.10;9.48;;;;;;;;;;5051554;28;20051;-86
2022/07/23 05:54:57;;;;;;;12.45;9.68;;;;;;;;;;5034545;28;20475;-86
2022/07/23 05:57:23;;;;;;;12.93;9.75;;;;;;;;;;5057060;28;20021;-86
2022/07/23 05:59:49;;;;;;;12.13;10.18;;;;;;;;;;5033995;28;20055;-86
2022/07/23 06:02:15;;;;;;;12.05;9.77;;;;;;;;;;5034694;28;20037;-87
2022/07/23 06:04:41;;;;;;;10.55;9.18;;;;;;;;;;5032965;28;20029;-87
2022/07/23 06:07:07;;;;;;;14.80;10.13;;;;;;;;;;5052806;28;20106;-87
2022/07/23 06:09:33;;;;;;;12.55;9.38;;;;;;;;;;5036497;28;20056;-87
2022/07/23 06:11:59;;;;;;;10.60;8.80;;;;;;;;;;5072084;28;20052;-87
2022/07/23 06:14:25;;;;;;;10.20;8.45;;;;;;;;;;5035019;28;20086;-87
2022/07/23 06:16:52;;;;;;;12.23;9.27;;;;;;;;;;5034290;28;20017;-87
2022/07/23 06:19:18;;;;;;;12.60;9.32;;;;;;;;;;5034098;28;20044;-87
2022/07/23 06:21:44;;;;;;;12.88;9.20;;;;;;;;;;5052657;28;20017;-86
2022/07/23 06:24:10;;;;;;;12.43;10.02;;;;;;;;;;5039829;28;20056;-86
2022/07/23 06:26:37;;;;;;;12.20;9.82;;;;;;;;;;5072682;28;20024;-87
2022/07/23 06:29:03;;;;;;;10.65;9.52;;;;;;;;;;5040377;28;20052;-85
2022/07/23 06:31:29;;;;;;;11.82;10.68;;;;;;;;;;5032427;28;20513;-87
2022/07/23 06:33:55;;;;;;;11.75;9.98;;;;;;;;;;5056440;28;20052;-86
2022/07/23 06:36:24;;;;;;;12.15;10.57;;;;;;;;;;5039657;28;20036;-85
2022/07/23 06:38:50;;;;;;;11.27;10.07;;;;;;;;;;5057679;28;20120;-87
2022/07/23 06:41:16;;;;;;;11.82;10.10;;;;;;;;;;5039276;28;20044;-86
2022/07/23 06:43:43;;;;;;;11.90;10.70;;;;;;;;;;5048457;28;20575;-87
2022/07/23 06:46:09;;;;;;;13.20;9.80;;;;;;;;;;5060259;28;20025;-86
2022/07/23 06:48:35;;;;;;;12.88;10.65;;;;;;;;;;5058339;28;20090;-87
2022/07/23 06:51:02;;;;;;;11.40;10.20;;;;;;;;;;5075990;28;20608;-86
2022/07/23 06:53:28;;;;;;;11.88;10.57;;;;;;;;;;5049780;28;20025;-86
2022/07/23 06:55:54;;;;;;;12.32;9.98;;;;;;;;;;5038052;28;20025;-86
2022/07/23 06:58:21;;;;;;;13.20;10.00;;;;;;;;;;5040519;28;20024;-86
2022/07/23 07:00:47;;;;;;;13.38;10.80;;;;;;;;;;5039295;28;20525;-86
2022/07/23 07:03:13;;;;;;;11.15;10.02;;;;;;;;;;5039626;28;20052;-87
2022/07/23 07:05:40;;;;;;;10.82;9.20;;;;;;;;;;5057641;28;20025;-87
2022/07/23 07:08:06;;;;;;;11.85;10.18;;;;;;;;;;5057324;28;20075;-86
2022/07/23 07:10:32;;;;;;;10.77;9.68;;;;;;;;;;5057742;28;20029;-86
2022/07/23 07:12:59;;;;;;;11.18;8.80;;;;;;;;;;5050868;28;20029;-88
2022/07/23 07:15:26;;;;;;;12.27;9.32;;;;;;;;;;5036896;28;20053;-88
2022/07/23 07:17:52;;;;;;;10.98;8.48;;;;;;;;;;5036047;28;20450;-86
2022/07/23 07:20:19;;;;;;;10.43;8.48;;;;;;;;;;5034393;28;20040;-86
2022/07/23 07:22:45;;;;;;;9.15;8.07;;;;;;;;;;5036572;28;20025;-86
2022/07/23 07:25:11;;;;;;;9.45;7.45;;;;;;;;;;5032811;28;20021;-85
2022/07/23 07:27:37;;;;;;;9.55;5.78;;;;;;;;;;5052090;28;20045;-87
2022/07/23 07:30:04;;;;;;;9.57;6.65;;;;;;;;;;5039292;28;20021;-85
2022/07/23 07:32:32;;;;;;;9.88;5.85;;;;;;;;;;5057665;28;20139;-86
2022/07/23 07:34:58;;;;;;;7.43;6.07;;;;;;;;;;5034718;28;20030;-87
2022/07/23 07:37:24;;;;;;;8.48;5.90;;;;;;;;;;5048764;28;20033;-88
2022/07/23 07:39:50;;;;;;;7.35;5.75;;;;;;;;;;5032941;28;20139;-86
2022/07/23 07:42:16;;;;;;;7.05;5.50;;;;;;;;;;5050839;28;20034;-86
2022/07/23 07:44:42;;;;;;;7.95;5.47;;;;;;;;;;5040565;28;20426;-86
2022/07/23 07:47:08;;;;;;;7.60;5.40;;;;;;;;;;5040597;28;20064;-86
2022/07/23 07:49:34;;;;;;;6.82;5.03;;;;;;;;;;5059452;28;20017;-88
2022/07/23 07:52:00;;;;;;;7.00;5.25;;;;;;;;;;5039411;28;20013;-85
2022/07/23 07:54:26;;;;;;;8.15;5.85;;;;;;;;;;5065787;28;20463;-85
2022/07/23 07:56:52;;;;;;;6.72;4.93;;;;;;;;;;5057093;28;20016;-86
2022/07/23 07:59:18;;;;;;;8.48;5.47;;;;;;;;;;5053785;28;20025;-86
2022/07/23 08:01:44;;;;;;;7.20;5.45;;;;;;;;;;5045372;28;20120;-86
2022/07/23 08:04:10;;;;;;;6.88;5.43;;;;;;;;;;5041366;28;20025;-86
2022/07/23 08:06:38;;;;;;;7.25;5.25;;;;;;;;;;5039323;28;20029;-84
2022/07/23 08:09:04;;;;;;;6.63;4.75;;;;;;;;;;5057414;28;20111;-88
2022/07/23 08:11:29;;;;;;;7.43;5.20;;;;;;;;;;5064902;28;20414;-85
2022/07/23 08:13:56;;;;;;;7.25;5.22;;;;;;;;;;5039387;28;20048;-87
2022/07/23 08:16:22;;;;;;;6.45;5.13;;;;;;;;;;5039439;28;20032;-88
2022/07/23 08:18:48;;;;;;;6.70;4.82;;;;;;;;;;5038246;28;20404;-85
2022/07/23 08:21:14;;;;;;;7.10;4.60;;;;;;;;;;5039528;28;20471;-86
2022/07/23 08:23:40;;;;;;;6.88;5.45;;;;;;;;;;5059179;28;20029;-84
2022/07/23 08:26:06;;;;;;;8.27;5.00;;;;;;;;;;5056781;28;20037;-85
2022/07/23 08:28:33;;;;;;;7.13;5.30;;;;;;;;;;5057546;28;20383;-86
2022/07/23 08:30:59;;;;;;;6.30;5.00;;;;;;;;;;5056154;28;20682;-87
2022/07/23 08:33:26;;;;;;;8.43;5.65;;;;;;;;;;5037473;28;20033;-86
2022/07/23 08:35:52;;;;;;;7.20;4.88;;;;;;;;;;5047202;28;20043;-86
2022/07/23 08:38:22;;;;;;;7.40;5.47;;;;;;;;;;5057469;28;20028;-86
2022/07/23 08:40:50;;;;;;;7.20;5.40;;;;;;;;;;5043873;28;20027;-86
2022/07/23 08:43:18;;;;;;;7.65;5.45;;;;;;;;;;5040764;28;20028;-84
2022/07/23 08:45:45;;;;;;;7.82;5.72;;;;;;;;;;5039706;28;20025;-84
2022/07/23 08:48:13;;;;;;;7.70;5.45;;;;;;;;;;5040497;28;20029;-84
2022/07/23 08:50:42;;;;;;;7.50;6.00;;;;;;;;;;5029056;28;20040;-84
2022/07/23 08:53:08;;;;;;;6.88;5.40;;;;;;;;;;5031401;28;20039;-86
2022/07/23 08:55:34;;;;;;;6.90;5.28;;;;;;;;;;5034318;28;20483;-84
2022/07/23 08:58:01;;;;;;;11.30;5.70;;;;;;;;;;5057914;28;20060;-84
2022/07/23 09:00:27;;;;;;;7.20;5.35;;;;;;;;;;5056969;28;20078;-85
2022/07/23 09:02:53;;;;;;;7.88;5.60;;;;;;;;;;5020953;28;20488;-85
2022/07/23 09:05:20;;;;;;;7.72;5.32;;;;;;;;;;5054847;28;20021;-85
2022/07/23 09:08:05;;;;;;;7.07;5.70;;;;;;;;;;5057923;28;20082;-84
2022/07/23 09:10:42;;;;;;;6.43;5.20;;;;;;;;;;5039381;28;20024;-84
2022/07/23 09:13:23;;;;;;;6.90;5.60;;;;;;;;;;5039789;28;20692;-86
2022/07/23 09:15:53;;;;;;;6.75;5.07;;;;;;;;;;5040754;28;20123;-82
2022/07/23 09:18:19;;;;;;;6.88;5.82;;;;;;;;;;5053543;28;20025;-85
2022/07/23 09:20:45;;;;;;;7.07;5.38;;;;;;;;;;5038798;28;20545;-86
2022/07/23 09:23:11;;;;;;;7.78;6.20;;;;;;;;;;5037105;28;20382;-86
2022/07/23 09:25:37;;;;;;;8.40;6.13;;;;;;;;;;5037231;28;20495;-84
2022/07/23 09:28:07;;;;;;;7.55;5.80;;;;;;;;;;5036548;28;20067;-84
2022/07/23 09:30:36;;;;;;;8.52;5.50;;;;;;;;;;5054482;28;20110;-87
2022/07/23 09:33:11;;;;;;;8.93;6.40;;;;;;;;;;5033122;28;20032;-85
2022/07/23 09:35:48;;;;;;;8.18;6.28;;;;;;;;;;5055069;28;20082;-84
2022/07/23 09:38:14;;;;;;;8.27;6.82;;;;;;;;;;5036045;28;20025;-83
2022/07/23 09:40:40;;;;;;;8.32;6.88;;;;;;;;;;5054508;28;20025;-84
2022/07/23 09:43:06;;;;;;;8.15;6.60;;;;;;;;;;5055126;28;20483;-85
2022/07/23 09:45:32;;;;;;;8.45;6.40;;;;;;;;;;5038412;28;20495;-85
2022/07/23 09:48:14;;;;;;;8.15;6.25;;;;;;;;;;5043878;28;20036;-84
2022/07/23 09:50:44;;;;;;;6.70;5.72;;;;;;;;;;5054960;28;20029;-84
2022/07/23 09:53:24;;;;;;;7.65;6.50;;;;;;;;;;5054580;28;20448;-84
2022/07/23 09:55:51;;;;;;;8.00;6.53;;;;;;;;;;5055268;28;20025;-85
2022/07/23 09:58:18;;;;;;;7.47;6.20;;;;;;;;;;5046732;28;20036;-84
2022/07/23 10:00:44;;;;;;;7.90;6.40;;;;;;;;;;5058793;28;20025;-84
2022/07/23 10:03:11;;;;;;;7.47;5.93;;;;;;;;;;5056617;28;20245;-85
2022/07/23 10:05:38;;;;;;;8.00;6.45;;;;;;;;;;5055769;28;20025;-84
2022/07/23 10:08:04;;;;;;;7.40;5.82;;;;;;;;;;5053635;28;20047;-85
2022/07/23 10:10:30;;;;;;;7.25;6.10;;;;;;;;;;5036619;28;20053;-84
2022/07/23 10:15:32;;;;;;;7.68;6.65;;;;;;;;;;5065108;28;20029;-85
2022/07/23 10:17:58;;;;;;;8.57;6.07;;;;;;;;;;5045301;28;20031;-83
2022/07/23 10:20:24;;;;;;;7.90;6.15;;;;;;;;;;5056421;28;20052;-84
2022/07/23 10:23:07;;;;;;;8.63;6.95;;;;;;;;;;5057640;28;20052;-84
2022/07/23 10:25:40;;;;;;;10.10;6.80;;;;;;;;;;5056939;28;20082;-84
2022/07/23 10:28:21;;;;;;;8.35;6.72;;;;;;;;;;5037272;28;20056;-84
2022/07/23 10:30:53;;;;;;;8.33;7.07;;;;;;;;;;5058633;28;20100;-84
2022/07/23 10:33:35;;;;;;;8.90;6.32;;;;;;;;;;5042266;28;20522;-84
2022/07/23 10:36:19;;;;;;;8.30;7.00;;;;;;;;;;5040126;28;20336;-83
2022/07/23 10:38:45;;;;;;;8.32;7.38;;;;;;;;;;5021785;28;20120;-84
2022/07/23 10:41:12;;;;;;;8.00;6.75;;;;;;;;;;5036346;28;20053;-85
2022/07/23 10:43:38;;;;;;;9.35;7.25;;;;;;;;;;5031516;28;20105;-84
2022/07/23 10:46:21;;;;;;;7.82;6.70;;;;;;;;;;5039287;28;20056;-84
2022/07/23 10:49:07;;;;;;;7.30;6.50;;;;;;;;;;5053222;28;20022;-84
2022/07/23 10:51:33;;;;;;;9.15;7.13;;;;;;;;;;5054945;28;20036;-84
2022/07/23 10:53:59;;;;;;;10.43;7.20;;;;;;;;;;5056456;28;20021;-83
2022/07/23 10:56:44;;;;;;;8.50;7.20;;;;;;;;;;5039406;28;20048;-83
2022/07/23 10:59:10;;;;;;;8.35;6.80;;;;;;;;;;5061180;28;20028;-84
2022/07/23 11:01:37;;;;;;;7.65;6.85;;;;;;;;;;5073330;28;20036;-85
2022/07/23 11:04:07;;;;;;;10.35;7.40;;;;;;;;;;5056459;28;20028;-84
2022/07/23 11:06:49;;;;;;;9.07;7.45;;;;;;;;;;5054408;28;20018;-84
2022/07/23 11:09:46;;;;;;;8.77;7.80;;;;;;;;;;5042685;28;20103;-83
2022/07/23 11:12:18;;;;;;;9.27;7.25;;;;;;;;;;4995315;28;20037;-83
2022/07/23 11:14:44;;;;;;;;;;;;;;;;;;4997851;28;20112;-84
2022/07/23 11:17:19;;;;;;;8.23;7.32;;;;;;;;;;4980698;28;20035;-83
2022/07/23 11:20:04;;;;;;;8.27;7.40;;;;;;;;;;5003903;28;20026;-84
2022/07/23 11:22:36;;;;;;;9.65;8.55;;;;;;;;;;4980593;28;20045;-83
2022/07/23 11:25:02;;;;;;;9.60;8.60;;;;;;;;;;4978895;28;20054;-85
2022/07/23 11:27:45;;;;;;;9.30;7.65;;;;;;;;;;4995887;28;20050;-84
2022/07/23 11:30:31;;;;;;;8.98;7.85;;;;;;;;;;4988121;28;20125;-83
2022/07/23 11:33:08;;;;;;;12.15;8.73;;;;;;;;;;4977470;28;20038;-84
2022/07/23 11:35:38;;;;;;;9.27;8.05;;;;;;;;;;4994281;28;20102;-84
2022/07/23 11:38:08;;;;;;;9.93;8.80;;;;;;;;;;4977722;28;20034;-84
2022/07/23 11:40:34;;;;;;;9.85;8.23;;;;;;;;;;4995769;28;20455;-82
2022/07/23 11:43:02;;;;;;;10.20;8.43;;;;;;;;;;4985098;28;20492;-83
2022/07/23 11:45:33;;;;;;;9.38;8.10;;;;;;;;;;4986889;28;20026;-85
2022/07/23 11:47:59;;;;;;;9.25;8.25;;;;;;;;;;4996153;28;20040;-84
2022/07/23 11:50:25;;;;;;;9.80;8.60;;;;;;;;;;5073842;28;20059;-84
2022/07/23 11:52:52;;;;;;;10.48;8.57;;;;;;;;;;5076431;28;20047;-84
2022/07/23 11:55:19;;;;;;;9.80;8.23;;;;;;;;;;5077917;28;20024;-84
2022/07/23 11:57:45;;;;;;;9.00;7.75;;;;;;;;;;5052575;28;20119;-84
2022/07/23 12:00:16;;;;;;;8.90;7.80;;;;;;;;;;5040850;28;20124;-84
2022/07/23 12:02:49;;;;;;;10.52;8.52;;;;;;;;;;5057127;28;20028;-85
2022/07/23 12:05:17;;;;;;;10.32;8.65;;;;;;;;;;5055663;28;20025;-84
2022/07/23 12:07:44;;;;;;;8.98;7.80;;;;;;;;;;5060484;28;20154;-86
2022/07/23 12:10:13;;;;;;;9.90;8.13;;;;;;;;;;5077059;28;20016;-85
2022/07/23 12:12:43;;;;;;;8.98;8.07;;;;;;;;;;5074703;28;20039;-85
2022/07/23 12:15:10;;;;;;;10.30;8.57;;;;;;;;;;5055962;28;20027;-85
2022/07/23 12:17:38;;;;;;;9.60;8.15;;;;;;;;;;5052876;28;20123;-85
2022/07/23 12:20:06;;;;;;;9.88;7.90;;;;;;;;;;5055710;28;20433;-84
2022/07/23 12:22:36;;;;;;;10.13;8.57;;;;;;;;;;5058558;28;20029;-83
2022/07/23 12:25:05;;;;;;;10.07;8.23;;;;;;;;;;5041291;28;20051;-84
2022/07/23 12:27:31;;;;;;;10.60;8.10;;;;;;;;;;5041034;28;20045;-84
2022/07/23 12:29:57;;;;;;;9.73;8.07;;;;;;;;;;5039432;28;20060;-85
2022/07/23 12:32:27;;;;;;;8.45;7.50;;;;;;;;;;5062566;28;20498;-84
2022/07/23 12:35:07;;;;;;;9.40;7.90;;;;;;;;;;5050918;28;20390;-85
2022/07/23 12:37:35;;;;;;;10.50;7.75;;;;;;;;;;5057074;28;20029;-83
2022/07/23 12:40:19;;;;;;;8.38;6.93;;;;;;;;;;5054109;28;20032;-84
2022/07/23 12:42:46;;;;;;;11.32;7.45;;;;;;;;;;5058066;28;20044;-84
2022/07/23 12:45:13;;;;;;;8.93;7.13;;;;;;;;;;5039469;28;20067;-85
2022/07/23 12:47:53;;;;;;;8.57;6.60;;;;;;;;;;5041899;28;20017;-84
2022/07/23 12:50:37;;;;;;;9.75;7.15;;;;;;;;;;5052693;28;20021;-83
2022/07/23 12:53:16;;;;;;;10.60;6.70;;;;;;;;;;5079925;28;20024;-84
2022/07/23 12:55:43;;;;;;;8.63;6.72;;;;;;;;;;5050409;28;20092;-84
2022/07/23 12:58:11;;;;;;;9.40;6.97;;;;;;;;;;5060700;28;20039;-85
2022/07/23 13:00:56;;;;;;;7.88;6.63;;;;;;;;;;5060452;28;20047;-85
2022/07/23 13:03:23;;;;;;;7.80;6.82;;;;;;;;;;5046082;28;20028;-85
2022/07/23 13:05:49;;;;;;;8.00;7.20;;;;;;;;;;5057315;28;20036;-84
2022/07/23 13:08:15;;;;;;;8.52;6.93;;;;;;;;;;5037235;28;20029;-84
2022/07/23 13:10:42;;;;;;;10.30;8.13;;;;;;;;;;5047199;28;20032;-84
2022/07/23 13:13:11;;;;;;;8.05;6.28;;;;;;;;;;5045358;28;20036;-84
2022/07/23 13:15:37;;;;;;;7.97;6.05;;;;;;;;;;5052959;28;20568;-84
2022/07/23 13:18:03;;;;;;;7.32;5.53;;;;;;;;;;5041533;28;20021;-84
2022/07/23 13:20:31;;;;;;;7.97;5.82;;;;;;;;;;5032784;28;20514;-84
2022/07/23 13:22:58;;;;;;;8.25;5.25;;;;;;;;;;5052597;28;20087;-84
2022/07/23 13:25:25;;;;;;;6.80;5.30;;;;;;;;;;5038426;28;20036;-84
2022/07/23 13:27:51;;;;;;;6.53;5.00;;;;;;;;;;5036032;28;20032;-84
2022/07/23 13:30:17;;;;;;;6.60;4.32;;;;;;;;;;5069587;28;20398;-87
2022/07/23 13:32:43;;;;;;;6.63;4.85;;;;;;;;;;5056578;28;20040;-85
2022/07/23 13:35:09;;;;;;;6.05;4.10;;;;;;;;;;5052482;28;20111;-86
2022/07/23 13:37:35;;;;;;;7.43;4.43;;;;;;;;;;5036449;28;20033;-86
2022/07/23 13:40:02;;;;;;;5.63;3.97;;;;;;;;;;5031775;28;20483;-84
2022/07/23 13:42:29;;;;;;;7.47;4.50;;;;;;;;;;5046851;28;20072;-86
2022/07/23 13:44:55;;;;;;;5.85;4.20;;;;;;;;;;5016723;28;20491;-84
2022/07/23 13:47:21;;;;;;;5.93;4.50;;;;;;;;;;5051914;28;20029;-85
2022/07/23 13:49:47;;;;;;;5.97;4.03;;;;;;;;;;5033321;28;20033;-85
2022/07/23 13:52:14;;;;;;;6.20;4.20;;;;;;;;;;5050244;28;20422;-85
2022/07/23 13:54:40;;;;;;;6.60;4.38;;;;;;;;;;5052894;28;20033;-84
2022/07/23 13:57:06;;;;;;;6.78;4.57;;;;;;;;;;5050398;28;20332;-83
2022/07/23 13:59:32;;;;;;;8.93;4.45;;;;;;;;;;5021005;28;20027;-85
2022/07/23 14:01:58;;;;;;;6.22;4.60;;;;;;;;;;5033448;28;20045;-85
2022/07/23 14:04:24;;;;;;;6.05;3.80;;;;;;;;;;5049259;28;20025;-84
2022/07/23 14:06:50;;;;;;;5.65;3.88;;;;;;;;;;5050683;28;20522;-84
2022/07/23 14:09:16;;;;;;;6.30;3.88;;;;;;;;;;5051624;28;20064;-84
2022/07/23 14:11:42;;;;;;;7.60;4.00;;;;;;;;;;5049720;28;20530;-85
2022/07/23 14:14:08;;;;;;;5.57;3.72;;;;;;;;;;5050682;28;20358;-85
2022/07/23 14:16:34;;;;;;;5.55;3.83;;;;;;;;;;5035564;28;20028;-85
2022/07/23 14:19:00;;;;;;;5.00;3.10;;;;;;;;;;5035950;28;20060;-84
2022/07/23 14:21:26;;;;;;;5.85;3.60;;;;;;;;;;5050511;28;20037;-85
2022/07/23 14:23:52;;;;;;;6.65;3.47;;;;;;;;;;5036337;28;20068;-85
2022/07/23 14:26:19;;;;;;;5.07;3.00;;;;;;;;;;5034836;28;20048;-85
2022/07/23 14:28:45;;;;;;;5.38;3.50;;;;;;;;;;5050118;28;20524;-85
2022/07/23 14:31:11;;;;;;;6.22;3.30;;;;;;;;;;5072342;28;20103;-84
2022/07/23 14:33:37;;;;;;;4.90;2.85;;;;;;;;;;5068978;28;20108;-85
2022/07/23 14:36:05;;;;;;;5.38;3.00;;;;;;;;;;5052627;28;20486;-86
2022/07/23 14:38:33;;;;;;;5.57;2.97;;;;;;;;;;5032852;28;20403;-85
2022/07/23 14:41:00;;;;;;;4.90;3.13;;;;;;;;;;5035013;28;20025;-85